createdAt,value
2022-12-01T00:01:39.821Z,13.25
2022-12-01T00:03:56.856Z,13.35
2022-12-01T00:06:13.994Z,13.80
2022-12-01T00:08:31.021Z,12.70
2022-12-01T00:10:48.565Z,13.23
2022-12-01T00:13:05.904Z,14.52
2022-12-01T00:15:22.967Z,13.57
2022-12-01T00:17:40.079Z,12.57
2022-12-01T00:19:57.233Z,13.02
2022-12-01T00:22:14.208Z,13.25
2022-12-01T00:24:31.312Z,13.13
2022-12-01T00:26:48.659Z,12.88
2022-12-01T00:29:05.690Z,11.93
2022-12-01T00:31:22.780Z,12.65
2022-12-01T00:33:40.016Z,12.43
2022-12-01T00:35:57.377Z,11.57
2022-12-01T00:38:14.329Z,12.63
2022-12-01T00:40:31.406Z,11.52
2022-12-01T00:42:48.574Z,11.88
2022-12-01T00:45:05.842Z,12.52
2022-12-01T00:47:23.877Z,11.70
2022-12-01T00:49:40.897Z,11.73
2022-12-01T00:51:57.995Z,11.95
2022-12-01T00:54:15.040Z,12.43
2022-12-01T00:56:32.099Z,10.88
2022-12-01T00:58:49.259Z,10.57
2022-12-01T01:01:06.242Z,10.43
2022-12-01T01:03:23.672Z,10.85
2022-12-01T01:05:40.629Z,10.32
2022-12-01T01:07:58.159Z,10.35
2022-12-01T01:10:15.118Z,9.95
2022-12-01T01:12:31.986Z,9.32
2022-12-01T01:14:49.273Z,8.65
2022-12-01T01:17:07.183Z,9.77
2022-12-01T01:19:24.521Z,9.77
2022-12-01T01:21:41.529Z,10.10
2022-12-01T01:23:58.861Z,10.75
2022-12-01T01:26:16.130Z,9.70
2022-12-01T01:28:33.324Z,9.75
2022-12-01T01:30:51.407Z,10.25
2022-12-01T01:33:08.772Z,10.20
2022-12-01T01:35:25.663Z,9.50
2022-12-01T01:37:42.616Z,10.93
2022-12-01T01:39:59.834Z,10.60
2022-12-01T01:42:16.850Z,11.18
2022-12-01T01:44:34.082Z,10.70
2022-12-01T01:46:51.386Z,10.80
2022-12-01T01:49:08.320Z,10.82
2022-12-01T01:51:25.262Z,11.00
2022-12-01T01:53:43.289Z,10.85
2022-12-01T01:56:00.524Z,11.55
2022-12-01T01:58:17.560Z,10.77
2022-12-01T02:00:34.902Z,10.55
2022-12-01T02:02:53.161Z,10.38
2022-12-01T02:05:10.137Z,11.43
2022-12-01T02:07:27.062Z,10.95
2022-12-01T02:09:45.309Z,11.38
2022-12-01T02:12:03.721Z,11.60
2022-12-01T02:14:20.958Z,11.35
2022-12-01T02:16:38.009Z,10.93
2022-12-01T02:18:55.013Z,10.57
2022-12-01T02:21:12.281Z,10.75
2022-12-01T02:23:29.183Z,10.55
2022-12-01T02:25:46.128Z,11.40
2022-12-01T02:28:03.125Z,11.07
2022-12-01T02:30:20.059Z,12.00
2022-12-01T02:32:36.897Z,11.02
2022-12-01T02:34:54.162Z,12.30
2022-12-01T02:37:11.999Z,10.77
2022-12-01T02:39:29.271Z,11.90
2022-12-01T02:41:46.264Z,12.82
2022-12-01T02:44:03.330Z,11.35
2022-12-01T02:46:20.285Z,12.30
2022-12-01T02:48:37.284Z,11.55
2022-12-01T02:50:54.276Z,11.60
2022-12-01T02:53:11.212Z,11.77
2022-12-01T02:55:28.512Z,10.75
2022-12-01T02:57:45.426Z,10.68
2022-12-01T03:00:02.334Z,11.30
2022-12-01T03:02:19.717Z,10.43
2022-12-01T03:04:36.820Z,9.77
2022-12-01T03:06:53.875Z,9.18
2022-12-01T03:09:11.158Z,10.43
2022-12-01T03:11:28.198Z,9.50
2022-12-01T03:13:45.115Z,8.95
2022-12-01T03:16:02.401Z,8.35
2022-12-01T03:18:19.264Z,8.60
2022-12-01T03:20:36.288Z,8.02
2022-12-01T03:22:53.171Z,7.85
2022-12-01T03:25:10.459Z,7.75
2022-12-01T03:27:27.781Z,7.18
2022-12-01T03:29:44.807Z,6.72
2022-12-01T03:32:02.185Z,7.05
2022-12-01T03:34:19.452Z,7.43
2022-12-01T03:36:36.493Z,6.85
2022-12-01T03:38:53.524Z,6.78
2022-12-01T03:41:10.500Z,6.70
2022-12-01T03:43:27.792Z,6.43
2022-12-01T03:45:44.796Z,6.63
2022-12-01T03:48:02.067Z,6.72
2022-12-01T03:50:19.946Z,6.50
2022-12-01T03:52:37.074Z,6.47
2022-12-01T03:54:54.072Z,6.10
2022-12-01T03:57:11.408Z,7.05
2022-12-01T03:59:29.642Z,6.35
2022-12-01T04:01:46.953Z,6.40
2022-12-01T04:04:04.050Z,6.47
2022-12-01T04:06:20.971Z,5.30
2022-12-01T04:08:37.938Z,5.55
2022-12-01T04:10:55.241Z,5.10
2022-12-01T04:13:12.557Z,5.10
2022-12-01T04:15:29.625Z,4.93
2022-12-01T04:17:46.828Z,4.85
2022-12-01T04:20:03.865Z,4.38
2022-12-01T04:22:20.825Z,4.40
2022-12-01T04:24:37.771Z,4.82
2022-12-01T04:26:54.730Z,4.78
2022-12-01T04:29:11.624Z,4.60
2022-12-01T04:31:28.739Z,4.13
2022-12-01T04:33:45.779Z,4.40
2022-12-01T04:36:02.742Z,4.85
2022-12-01T04:38:20.147Z,5.28
2022-12-01T04:40:38.137Z,5.70
2022-12-01T04:42:55.421Z,5.60
2022-12-01T04:45:12.455Z,5.28
2022-12-01T04:47:29.742Z,5.47
2022-12-01T04:49:46.789Z,5.18
2022-12-01T04:52:04.233Z,6.10
2022-12-01T04:54:21.166Z,5.63
2022-12-01T04:56:38.480Z,6.07
2022-12-01T04:58:55.776Z,6.38
2022-12-01T05:01:12.927Z,6.38
2022-12-01T05:03:30.302Z,6.93
2022-12-01T05:05:47.578Z,6.57
2022-12-01T05:08:04.716Z,5.80
2022-12-01T05:10:22.001Z,5.93
2022-12-01T05:12:39.908Z,5.18
2022-12-01T05:14:56.828Z,5.57
2022-12-01T05:17:13.907Z,5.15
2022-12-01T05:19:30.868Z,5.07
2022-12-01T05:21:47.898Z,5.03
2022-12-01T05:24:04.902Z,4.70
2022-12-01T05:26:22.203Z,4.50
2022-12-01T05:28:39.231Z,4.47
2022-12-01T05:30:56.562Z,3.90
2022-12-01T05:33:13.542Z,3.40
2022-12-01T05:35:30.569Z,3.60
2022-12-01T05:37:47.911Z,3.45
2022-12-01T05:40:05.209Z,3.10
2022-12-01T05:42:22.110Z,2.85
2022-12-01T05:44:39.416Z,3.13
2022-12-01T05:46:56.711Z,3.00
2022-12-01T05:49:13.611Z,3.20
2022-12-01T05:51:30.902Z,2.60
2022-12-01T05:53:47.800Z,2.50
2022-12-01T05:56:04.790Z,2.72
2022-12-01T05:58:21.691Z,2.47
2022-12-01T06:00:45.361Z,2.63
2022-12-01T06:03:03.315Z,2.45
2022-12-01T06:05:20.683Z,2.38
2022-12-01T06:07:37.721Z,2.13
2022-12-01T06:09:56.042Z,2.17
2022-12-01T06:12:12.939Z,2.40
2022-12-01T06:14:30.303Z,2.45
2022-12-01T06:16:47.314Z,2.50
2022-12-01T06:19:04.652Z,2.60
2022-12-01T06:21:21.950Z,2.55
2022-12-01T06:23:39.255Z,2.50
2022-12-01T06:25:56.537Z,2.72
2022-12-01T06:28:13.504Z,2.78
2022-12-01T06:30:30.794Z,2.72
2022-12-01T06:32:48.702Z,2.92
2022-12-01T06:35:05.942Z,3.22
2022-12-01T06:37:23.000Z,3.67
2022-12-01T06:39:39.842Z,4.15
2022-12-01T06:41:57.938Z,4.47
2022-12-01T06:44:14.948Z,4.70
2022-12-01T06:46:32.027Z,5.10
2022-12-01T06:48:49.316Z,5.68
2022-12-01T06:51:07.364Z,5.72
2022-12-01T06:53:24.316Z,5.65
2022-12-01T06:55:41.212Z,6.50
2022-12-01T06:57:58.382Z,6.72
2022-12-01T07:00:16.768Z,7.28
2022-12-01T07:02:34.326Z,8.48
2022-12-01T07:04:51.355Z,7.20
2022-12-01T07:07:09.230Z,8.23
2022-12-01T07:09:26.239Z,8.32
2022-12-01T07:11:43.089Z,8.25
2022-12-01T07:14:00.367Z,8.05
2022-12-01T07:16:17.705Z,8.10
2022-12-01T07:18:35.599Z,8.93
2022-12-01T07:20:52.595Z,8.43
2022-12-01T07:23:09.655Z,8.52
2022-12-01T07:25:26.724Z,9.43
2022-12-01T07:27:44.048Z,9.98
2022-12-01T07:30:01.042Z,9.35
2022-12-01T07:32:17.932Z,10.10
2022-12-01T07:34:35.014Z,10.23
2022-12-01T07:36:51.893Z,11.57
2022-12-01T07:39:08.921Z,12.32
2022-12-01T07:41:25.859Z,12.07
2022-12-01T07:43:43.157Z,12.25
2022-12-01T07:46:00.203Z,13.10
2022-12-01T07:48:17.546Z,12.73
2022-12-01T07:50:34.928Z,11.73
2022-12-01T07:52:51.872Z,12.70
2022-12-01T07:55:09.132Z,12.93
2022-12-01T07:57:26.095Z,12.40
2022-12-01T07:59:43.119Z,13.25
2022-12-01T08:02:01.530Z,13.23
2022-12-01T08:04:18.882Z,13.00
2022-12-01T08:06:36.868Z,12.45
2022-12-01T08:08:53.826Z,13.00
2022-12-01T08:11:10.913Z,12.82
2022-12-01T08:13:28.254Z,12.32
2022-12-01T08:15:46.216Z,12.98
2022-12-01T08:18:03.154Z,12.60
2022-12-01T08:20:23.904Z,12.77
2022-12-01T08:22:41.479Z,13.38
2022-12-01T08:24:58.664Z,13.10
2022-12-01T08:27:15.955Z,12.45
2022-12-01T08:29:33.186Z,12.38
2022-12-01T08:31:50.302Z,12.35
2022-12-01T08:34:08.562Z,12.95
2022-12-01T08:36:26.604Z,12.38
2022-12-01T08:38:43.557Z,12.27
2022-12-01T08:41:00.511Z,12.00
2022-12-01T08:43:41.523Z,12.60
2022-12-01T08:45:54.372Z,13.30
2022-12-01T08:48:11.634Z,12.13
2022-12-01T08:50:28.695Z,12.10
2022-12-01T08:52:45.962Z,11.93
2022-12-01T08:55:03.060Z,10.77
2022-12-01T08:57:20.319Z,10.50
2022-12-01T08:59:37.194Z,10.50
2022-12-01T09:01:54.331Z,10.57
2022-12-01T09:04:11.363Z,10.77
2022-12-01T09:06:28.802Z,9.95
2022-12-01T09:08:45.659Z,10.68
2022-12-01T09:11:02.660Z,10.32
2022-12-01T09:13:19.561Z,12.70
2022-12-01T09:15:36.751Z,11.20
2022-12-01T09:17:53.789Z,11.07
2022-12-01T09:20:10.812Z,10.10
2022-12-01T09:22:28.033Z,10.27
2022-12-01T09:24:45.268Z,10.40
2022-12-01T09:27:02.616Z,9.68
2022-12-01T09:29:19.678Z,9.85
2022-12-01T09:31:36.979Z,9.93
2022-12-01T09:33:54.412Z,9.30
2022-12-01T09:36:11.459Z,9.82
2022-12-01T09:38:28.523Z,10.75
2022-12-01T09:40:45.724Z,9.60
2022-12-01T09:43:02.758Z,9.55
2022-12-01T09:45:19.624Z,10.95
2022-12-01T09:47:36.956Z,10.40
2022-12-01T09:49:54.003Z,10.18
2022-12-01T09:52:11.302Z,10.05
2022-12-01T09:54:28.337Z,9.82
2022-12-01T09:56:45.372Z,10.18
2022-12-01T09:59:02.315Z,10.27
2022-12-01T10:01:24.421Z,9.80
2022-12-01T10:03:42.924Z,10.32
2022-12-01T10:08:37.120Z,10.10
2022-12-01T10:10:54.433Z,11.02
2022-12-01T10:13:11.668Z,11.73
2022-12-01T10:15:29.006Z,12.18
2022-12-01T10:17:45.950Z,16.80
2022-12-01T10:20:03.282Z,15.85
2022-12-01T10:22:20.562Z,14.43
2022-12-01T10:24:37.503Z,13.38
2022-12-01T10:26:54.775Z,13.95
2022-12-01T10:29:11.820Z,14.02
2022-12-01T10:31:28.838Z,12.55
2022-12-01T10:33:46.908Z,12.60
2022-12-01T10:36:03.929Z,13.18
2022-12-01T10:38:21.872Z,12.90
2022-12-01T10:40:38.800Z,12.40
2022-12-01T10:42:56.108Z,13.13
2022-12-01T10:45:13.080Z,13.50
2022-12-01T10:47:31.358Z,14.23
2022-12-01T10:49:48.870Z,14.07
2022-12-01T10:52:06.515Z,13.88
2022-12-01T10:54:23.833Z,13.82
2022-12-01T10:56:42.115Z,14.68
2022-12-01T10:58:59.124Z,14.20
2022-12-01T11:01:16.243Z,15.68
2022-12-01T11:03:33.480Z,16.08
2022-12-01T11:05:50.759Z,15.75
2022-12-01T11:08:07.805Z,16.23
2022-12-01T11:10:25.172Z,20.65
2022-12-01T11:12:42.410Z,18.55
2022-12-01T11:14:59.443Z,19.33
2022-12-01T11:17:16.741Z,19.17
2022-12-01T11:19:33.787Z,18.75
2022-12-01T11:21:50.961Z,18.88
2022-12-01T11:24:07.917Z,21.38
2022-12-01T11:26:24.838Z,18.90
2022-12-01T11:28:42.164Z,18.67
2022-12-01T11:30:59.209Z,18.08
2022-12-01T11:33:16.299Z,18.08
2022-12-01T11:35:33.268Z,17.58
2022-12-01T11:38:20.993Z,20.33
2022-12-01T11:40:27.550Z,21.15
2022-12-01T11:42:44.822Z,20.10
2022-12-01T11:45:01.906Z,21.88
2022-12-01T11:47:23.773Z,20.35
2022-12-01T11:52:18.382Z,22.55
2022-12-01T11:54:35.395Z,22.00
2022-12-01T11:57:17.321Z,21.00
2022-12-01T11:59:29.567Z,22.50
2022-12-01T12:01:46.511Z,21.10
2022-12-01T12:04:03.595Z,23.25
2022-12-01T12:08:58.910Z,20.88
2022-12-01T12:11:15.876Z,21.42
2022-12-01T12:13:33.244Z,20.35
2022-12-01T12:15:50.476Z,19.45
2022-12-01T12:18:07.657Z,20.40
2022-12-01T12:20:25.646Z,20.73
2022-12-01T12:22:42.559Z,19.73
2022-12-01T12:24:59.541Z,20.85
2022-12-01T12:27:16.581Z,21.48
2022-12-01T12:29:33.941Z,22.17
2022-12-01T12:31:51.064Z,21.15
2022-12-01T12:34:08.051Z,21.48
2022-12-01T12:36:25.929Z,22.60
2022-12-01T12:38:43.081Z,21.77
2022-12-01T12:41:00.082Z,21.83
2022-12-01T12:43:18.181Z,21.60
2022-12-01T12:45:35.477Z,22.15
2022-12-01T12:47:52.685Z,21.48
2022-12-01T12:50:10.950Z,20.88
2022-12-01T12:52:28.037Z,21.25
2022-12-01T12:54:45.252Z,20.75
2022-12-01T12:57:02.644Z,21.45
2022-12-01T12:59:19.625Z,21.58
2022-12-01T13:01:37.476Z,22.27
2022-12-01T13:03:55.117Z,20.45
2022-12-01T13:06:13.171Z,21.15
2022-12-01T13:08:30.092Z,20.85
2022-12-01T13:10:47.353Z,21.75
2022-12-01T13:13:04.463Z,21.13
2022-12-01T13:15:21.444Z,20.73
2022-12-01T13:17:38.365Z,21.50
2022-12-01T13:19:55.612Z,22.58
2022-12-01T13:22:13.716Z,21.75
2022-12-01T13:24:31.758Z,22.05
2022-12-01T13:26:48.975Z,21.27
2022-12-01T13:29:06.217Z,22.73
2022-12-01T13:31:23.682Z,21.92
2022-12-01T13:33:40.733Z,20.77
2022-12-01T13:36:30.025Z,22.15
2022-12-01T13:38:34.558Z,21.80
2022-12-01T13:40:53.199Z,21.63
2022-12-01T13:43:10.942Z,22.38
2022-12-01T13:45:28.381Z,20.88
2022-12-01T13:47:46.657Z,21.75
2022-12-01T13:50:03.936Z,20.88
2022-12-01T13:52:20.834Z,21.77
2022-12-01T13:54:38.102Z,21.35
2022-12-01T13:56:55.103Z,20.92
2022-12-01T13:59:12.167Z,19.90
2022-12-01T14:01:29.463Z,21.20
2022-12-01T14:03:46.495Z,22.60
2022-12-01T14:06:03.505Z,22.00
2022-12-01T14:08:23.277Z,21.33
2022-12-01T14:10:40.636Z,21.55
2022-12-01T14:12:57.640Z,21.13
2022-12-01T14:15:14.973Z,22.00
2022-12-01T14:17:31.998Z,22.20
2022-12-01T14:19:49.093Z,21.55
2022-12-01T14:22:06.125Z,20.33
2022-12-01T14:24:24.400Z,21.17
2022-12-01T14:26:44.733Z,21.67
2022-12-01T14:29:02.063Z,20.92
2022-12-01T14:31:19.460Z,20.67
2022-12-01T14:33:36.872Z,21.25
2022-12-01T14:35:54.371Z,20.95
2022-12-01T14:38:11.699Z,21.80
2022-12-01T14:40:28.814Z,22.02
2022-12-01T14:42:46.008Z,22.40
2022-12-01T14:45:03.801Z,22.90
2022-12-01T14:47:20.929Z,20.05
2022-12-01T14:49:38.762Z,20.27
2022-12-01T14:51:55.975Z,19.92
2022-12-01T14:54:13.938Z,22.25
2022-12-01T14:56:31.285Z,20.98
2022-12-01T14:58:48.326Z,21.60
2022-12-01T15:01:05.410Z,21.23
2022-12-01T15:03:25.382Z,22.17
2022-12-01T15:05:45.070Z,21.52
2022-12-01T15:08:33.187Z,22.63
2022-12-01T15:10:39.685Z,21.50
2022-12-01T15:12:56.829Z,21.13
2022-12-01T15:15:13.877Z,20.95
2022-12-01T15:17:31.127Z,21.67
2022-12-01T15:19:48.509Z,22.23
2022-12-01T15:22:06.395Z,22.20
2022-12-01T15:24:23.579Z,23.25
2022-12-01T15:26:41.147Z,21.23
2022-12-01T15:28:58.264Z,21.88
2022-12-01T15:31:15.330Z,21.58
2022-12-01T15:33:36.822Z,22.35
2022-12-01T15:35:54.308Z,21.70
2022-12-01T15:38:11.304Z,21.48
2022-12-01T15:41:13.373Z,21.98
2022-12-01T15:43:05.327Z,20.88
2022-12-01T15:45:22.373Z,23.00
2022-12-01T15:47:39.764Z,23.02
2022-12-01T15:49:57.004Z,21.80
2022-12-01T15:52:14.594Z,23.65
2022-12-01T15:54:32.124Z,22.70
2022-12-01T15:56:49.270Z,23.77
2022-12-01T15:59:06.225Z,23.90
2022-12-01T16:01:23.589Z,22.83
2022-12-01T16:03:40.668Z,22.38
2022-12-01T16:05:58.728Z,20.92
2022-12-01T16:08:16.033Z,21.33
2022-12-01T16:10:33.359Z,22.27
2022-12-01T16:12:50.665Z,22.08
2022-12-01T16:15:07.717Z,22.33
2022-12-01T16:17:25.038Z,22.02
2022-12-01T16:19:42.032Z,22.58
2022-12-01T16:21:59.082Z,22.23
2022-12-01T16:24:17.367Z,21.90
2022-12-01T16:26:35.372Z,21.65
2022-12-01T16:28:52.396Z,22.17
2022-12-01T16:31:15.051Z,22.52
2022-12-01T16:33:32.288Z,21.90
2022-12-01T16:35:49.290Z,21.73
2022-12-01T16:38:07.168Z,21.15
2022-12-01T16:40:24.162Z,20.52
2022-12-01T16:42:41.247Z,22.65
2022-12-01T16:44:58.397Z,20.35
2022-12-01T16:47:15.357Z,21.77
2022-12-01T16:49:32.710Z,22.23
2022-12-01T16:51:55.752Z,20.30
2022-12-01T16:54:14.082Z,21.92
2022-12-01T16:56:31.137Z,21.33
2022-12-01T16:58:48.188Z,21.40
2022-12-01T17:01:06.322Z,22.17
2022-12-01T17:03:23.567Z,19.60
2022-12-01T17:05:41.767Z,19.60
2022-12-01T17:07:58.929Z,21.23
2022-12-01T17:10:16.199Z,20.52
2022-12-01T17:12:34.462Z,21.08
2022-12-01T17:14:51.712Z,20.88
2022-12-01T17:17:09.052Z,21.40
2022-12-01T17:19:26.309Z,21.95
2022-12-01T17:21:43.607Z,21.98
2022-12-01T17:24:00.616Z,21.67
2022-12-01T17:26:17.915Z,20.75
2022-12-01T17:28:34.924Z,21.63
2022-12-01T17:30:52.059Z,22.08
2022-12-01T17:33:09.082Z,21.23
2022-12-01T17:35:26.181Z,21.98
2022-12-01T17:37:43.076Z,22.20
2022-12-01T17:40:00.365Z,21.60
2022-12-01T17:42:18.259Z,20.98
2022-12-01T17:44:35.558Z,21.00
2022-12-01T17:46:52.581Z,20.77
2022-12-01T17:49:09.872Z,21.83
2022-12-01T17:51:27.163Z,20.30
2022-12-01T17:53:45.456Z,20.08
2022-12-01T17:56:03.360Z,19.67
2022-12-01T17:58:20.420Z,19.85
2022-12-01T18:00:37.528Z,18.15
2022-12-01T18:02:54.933Z,19.58
2022-12-01T18:05:12.205Z,19.27
2022-12-01T18:07:29.675Z,19.33
2022-12-01T18:09:46.683Z,20.17
2022-12-01T18:12:03.999Z,17.70
2022-12-01T18:14:21.124Z,19.05
2022-12-01T18:16:38.258Z,18.92
2022-12-01T18:18:55.266Z,18.38
2022-12-01T18:21:12.329Z,17.75
2022-12-01T18:23:29.268Z,18.83
2022-12-01T18:25:47.103Z,18.33
2022-12-01T18:28:03.973Z,17.70
2022-12-01T18:30:21.204Z,16.80
2022-12-01T18:32:38.279Z,17.10
2022-12-01T18:34:55.609Z,17.02
2022-12-01T18:37:12.747Z,17.52
2022-12-01T18:39:30.022Z,16.92
2022-12-01T18:41:47.133Z,16.98
2022-12-01T18:44:04.498Z,16.42
2022-12-01T18:46:21.631Z,15.65
2022-12-01T18:48:38.936Z,16.50
2022-12-01T18:50:59.411Z,16.15
2022-12-01T18:53:16.607Z,15.40
2022-12-01T18:55:33.558Z,15.65
2022-12-01T18:57:50.859Z,16.08
2022-12-01T19:00:09.149Z,15.57
2022-12-01T19:02:26.530Z,16.17
2022-12-01T19:04:43.515Z,15.90
2022-12-01T19:07:00.799Z,16.15
2022-12-01T19:09:18.128Z,15.43
2022-12-01T19:11:35.867Z,15.70
2022-12-01T19:13:52.886Z,14.55
2022-12-01T19:16:10.158Z,14.60
2022-12-01T19:18:27.464Z,17.45
2022-12-01T19:20:44.433Z,15.93
2022-12-01T19:23:01.956Z,14.88
2022-12-01T19:25:19.341Z,15.07
2022-12-01T19:27:36.607Z,14.43
2022-12-01T19:29:54.599Z,14.80
2022-12-01T19:32:11.737Z,13.55
2022-12-01T19:34:28.812Z,13.00
2022-12-01T19:36:46.743Z,13.80
2022-12-01T19:39:05.967Z,13.65
2022-12-01T19:41:24.516Z,13.55
2022-12-01T19:43:41.520Z,14.02
2022-12-01T19:45:58.871Z,13.10
2022-12-01T19:48:16.137Z,13.68
2022-12-01T19:50:33.407Z,13.07
2022-12-01T19:52:50.321Z,13.25
2022-12-01T19:55:07.303Z,13.77
2022-12-01T19:57:24.290Z,13.95
2022-12-01T19:59:41.442Z,13.85
2022-12-01T20:01:58.750Z,14.40
2022-12-01T20:04:15.737Z,13.77
2022-12-01T20:06:32.648Z,13.27
2022-12-01T20:08:49.625Z,13.35
2022-12-01T20:11:07.665Z,14.65
2022-12-01T20:13:26.776Z,14.95
2022-12-01T20:15:43.898Z,15.52
2022-12-01T20:18:01.450Z,16.08
2022-12-01T20:20:18.338Z,15.70
2022-12-01T20:22:35.767Z,14.63
2022-12-01T20:24:52.857Z,17.27
2022-12-01T20:27:10.398Z,17.88
2022-12-01T20:29:27.486Z,16.73
2022-12-01T20:31:45.862Z,15.60
2022-12-01T20:34:03.208Z,15.18
2022-12-01T20:36:20.260Z,16.20
2022-12-01T20:38:38.582Z,16.60
2022-12-01T20:40:55.507Z,16.88
2022-12-01T20:43:12.495Z,15.48
2022-12-01T20:45:29.867Z,15.82
2022-12-01T20:47:47.243Z,15.90
2022-12-01T20:50:04.357Z,14.82
2022-12-01T20:52:21.283Z,15.63
2022-12-01T20:54:38.403Z,15.73
2022-12-01T20:56:55.737Z,14.90
2022-12-01T20:59:13.704Z,15.68
2022-12-01T21:01:31.059Z,15.75
2022-12-01T21:03:48.111Z,14.80
2022-12-01T21:06:05.277Z,15.38
2022-12-01T21:08:22.252Z,15.90
2022-12-01T21:10:40.212Z,16.10
2022-12-01T21:12:57.612Z,16.50
2022-12-01T21:15:14.585Z,15.85
2022-12-01T21:17:31.825Z,16.85
2022-12-01T21:19:49.023Z,15.50
2022-12-01T21:22:06.967Z,15.23
2022-12-01T21:24:28.512Z,15.38
2022-12-01T21:26:49.130Z,15.10
2022-12-01T21:29:06.521Z,14.75
2022-12-01T21:31:23.572Z,15.70
2022-12-01T21:33:40.937Z,13.73
2022-12-01T21:35:58.329Z,14.65
2022-12-01T21:38:20.453Z,15.02
2022-12-01T21:40:38.774Z,14.93
2022-12-01T21:42:55.843Z,15.82
2022-12-01T21:45:12.931Z,15.55
2022-12-01T21:47:30.192Z,14.20
2022-12-01T21:49:47.243Z,15.63
2022-12-01T21:52:04.579Z,15.38
2022-12-01T21:54:21.816Z,14.50
2022-12-01T21:56:38.796Z,14.23
2022-12-01T21:58:55.747Z,14.70
2022-12-01T22:01:12.849Z,15.98
2022-12-01T22:03:30.225Z,15.32
2022-12-01T22:06:06.868Z,16.50
2022-12-01T22:08:24.396Z,15.88
2022-12-01T22:10:41.526Z,15.70
2022-12-01T22:12:59.630Z,16.05
2022-12-01T22:15:16.696Z,16.00
2022-12-01T22:17:33.797Z,15.73
2022-12-01T22:19:51.177Z,14.85
2022-12-01T22:22:08.283Z,17.05
2022-12-01T22:24:25.572Z,16.92
2022-12-01T22:26:42.473Z,16.77
2022-12-01T22:28:59.773Z,17.80
2022-12-01T22:31:17.129Z,18.80
2022-12-01T22:33:34.526Z,17.92
2022-12-01T22:35:51.929Z,18.00
2022-12-01T22:38:09.284Z,18.10
2022-12-01T22:40:26.262Z,18.33
2022-12-01T22:42:43.259Z,19.73
2022-12-01T22:45:00.481Z,21.15
2022-12-01T22:47:17.921Z,20.23
2022-12-01T22:49:34.867Z,22.48
2022-12-01T22:51:52.094Z,20.52
2022-12-01T22:54:09.498Z,21.92
2022-12-01T22:56:26.604Z,20.92
2022-12-01T22:58:43.951Z,22.42
2022-12-01T23:01:00.977Z,21.35
2022-12-01T23:03:17.944Z,19.60
2022-12-01T23:05:35.021Z,21.05
2022-12-01T23:07:54.021Z,23.63
2022-12-01T23:10:11.290Z,20.98
2022-12-01T23:12:29.523Z,21.90
2022-12-01T23:14:46.560Z,19.42
2022-12-01T23:17:03.559Z,21.08
2022-12-01T23:19:20.582Z,21.77
2022-12-01T23:21:37.572Z,20.60
2022-12-01T23:23:54.511Z,22.30
2022-12-01T23:26:11.524Z,21.08
2022-12-01T23:28:28.434Z,21.60
2022-12-01T23:30:45.737Z,22.48
2022-12-01T23:33:02.781Z,21.92
2022-12-01T23:35:20.176Z,21.42
2022-12-01T23:37:37.554Z,22.02
2022-12-01T23:39:54.974Z,22.13
2022-12-01T23:42:13.079Z,22.05
2022-12-01T23:44:30.136Z,23.50
2022-12-01T23:46:47.431Z,21.75
2022-12-01T23:49:04.581Z,21.27
2022-12-01T23:51:21.533Z,20.35
2022-12-01T23:53:38.679Z,21.08
2022-12-01T23:55:55.917Z,21.40
2022-12-01T23:58:13.895Z,21.52
